Time;durP1;ratioP1;P1;durP2;ratioP2;P2;SDS_P1;SDS_P2;PMS_P1;PMS_P2;Temp;Humidity;BMP_temperature;BMP_pressure;BME280_temperature;BME280_humidity;BME280_pressure;Samples;Min_cycle;Max_cycle;Signal;HPM_P1;HPM_P2
2021/11/14 00:01:51;;;;;;;85.37;50.10;;;8.30;98.30;;;;;;5133469;23;20429;-80
2021/11/14 00:03:54;;;;;;;46.93;27.07;;;8.30;98.30;;;;;;5133463;23;20846;-80
2021/11/14 00:05:57;;;;;;;57.80;25.70;;;8.30;98.30;;;;;;5125276;23;20505;-80
2021/11/14 00:08:00;;;;;;;41.13;23.53;;;8.30;98.30;;;;;;5125165;23;20480;-79
2021/11/14 00:10:06;;;;;;;44.33;24.37;;;8.30;98.30;;;;;;5125879;23;20447;-79
2021/11/14 00:12:11;;;;;;;38.50;22.07;;;8.30;98.30;;;;;;5125880;23;20410;-80
2021/11/14 00:14:14;;;;;;;49.70;24.33;;;8.30;98.30;;;;;;5127311;23;20458;-79
2021/11/14 00:16:19;;;;;;;46.57;23.87;;;8.40;98.30;;;;;;5134924;23;20424;-79
2021/11/14 00:18:23;;;;;;;41.73;25.43;;;8.30;98.30;;;;;;5131844;23;20456;-79
2021/11/14 00:20:26;;;;;;;41.80;23.53;;;8.30;98.30;;;;;;5124206;23;20509;-79
2021/11/14 00:22:29;;;;;;;44.07;23.87;;;8.30;98.30;;;;;;5123125;23;20427;-79
2021/11/14 00:24:32;;;;;;;50.90;24.23;;;8.30;98.30;;;;;;5129069;23;20727;-79
2021/11/14 00:26:36;;;;;;;41.23;24.77;;;8.30;98.30;;;;;;5131105;23;20473;-80
2021/11/14 00:28:42;;;;;;;38.00;22.97;;;8.30;98.30;;;;;;5132006;23;20437;-80
2021/11/14 00:30:45;;;;;;;48.50;24.80;;;8.30;98.30;;;;;;5124123;23;20428;-80
2021/11/14 00:32:50;;;;;;;41.60;23.20;;;8.30;98.30;;;;;;5132067;23;20452;-79
2021/11/14 00:34:54;;;;;;;47.43;29.10;;;8.30;98.30;;;;;;5126869;23;20449;-80
2021/11/14 00:36:57;;;;;;;44.17;22.47;;;8.20;98.30;;;;;;5126860;23;20489;-79
2021/11/14 00:39:00;;;;;;;50.97;24.50;;;8.20;98.30;;;;;;5134308;23;20545;-80
2021/11/14 00:41:03;;;;;;;54.17;26.50;;;8.20;98.30;;;;;;5135366;23;20424;-79
2021/11/14 00:43:06;;;;;;;49.57;28.70;;;8.20;98.30;;;;;;5123661;23;20918;-79
2021/11/14 00:45:12;;;;;;;46.40;24.70;;;8.20;98.30;;;;;;5132852;23;20426;-80
2021/11/14 00:47:15;;;;;;;43.70;22.80;;;8.20;98.30;;;;;;5133052;23;20737;-80
2021/11/14 00:49:18;;;;;;;45.77;24.50;;;8.20;98.30;;;;;;5125583;23;20870;-79
2021/11/14 00:51:28;;;;;;;58.67;27.53;;;8.10;98.30;;;;;;5125632;23;20461;-79
2021/11/14 00:53:32;;;;;;;53.70;26.37;;;8.10;98.30;;;;;;5125052;23;20416;-79
2021/11/14 00:55:35;;;;;;;52.00;30.20;;;8.20;98.30;;;;;;5133343;23;20838;-79
2021/11/14 00:57:39;;;;;;;50.93;24.00;;;8.20;98.30;;;;;;5125640;23;20500;-79
2021/11/14 00:59:41;;;;;;;52.83;27.40;;;8.20;98.30;;;;;;5127258;23;20477;-80
2021/11/14 01:01:46;;;;;;;49.50;25.43;;;8.20;98.30;;;;;;5137369;23;20450;-80
2021/11/14 01:03:50;;;;;;;53.30;26.40;;;8.20;98.30;;;;;;5137418;23;20433;-79
2021/11/14 01:05:53;;;;;;;45.57;23.07;;;8.20;98.30;;;;;;5137815;23;20439;-80
2021/11/14 01:07:56;;;;;;;49.77;24.53;;;8.20;98.30;;;;;;5137590;23;20515;-79
2021/11/14 01:09:59;;;;;;;46.67;25.00;;;8.20;98.30;;;;;;5129325;23;20465;-79
2021/11/14 01:12:02;;;;;;;47.07;24.43;;;8.20;98.30;;;;;;5130397;23;20433;-80
2021/11/14 01:14:05;;;;;;;48.13;23.00;;;8.20;98.30;;;;;;5135944;23;20528;-79
2021/11/14 01:16:11;;;;;;;43.77;24.60;;;8.20;98.30;;;;;;5125142;23;20432;-79
2021/11/14 01:18:19;;;;;;;47.73;23.60;;;8.20;98.30;;;;;;5125364;23;20512;-80
2021/11/14 01:20:25;;;;;;;42.63;21.17;;;8.30;98.30;;;;;;5125101;23;20435;-79
2021/11/14 01:22:27;;;;;;;48.07;24.20;;;8.30;98.30;;;;;;5133074;23;20528;-79
2021/11/14 01:24:30;;;;;;;43.90;20.97;;;8.30;98.30;;;;;;5125595;23;20430;-79
2021/11/14 01:26:33;;;;;;;56.53;24.90;;;8.20;98.30;;;;;;5133704;23;20512;-79
2021/11/14 01:28:38;;;;;;;50.20;29.00;;;8.20;98.30;;;;;;5124775;23;20450;-79
2021/11/14 01:30:43;;;;;;;48.93;24.83;;;8.20;98.30;;;;;;5125525;23;20435;-79
2021/11/14 01:32:46;;;;;;;49.70;22.93;;;8.20;98.30;;;;;;5133810;23;20434;-79
2021/11/14 01:34:51;;;;;;;48.77;23.87;;;8.30;98.30;;;;;;5125348;23;20438;-79
2021/11/14 01:36:54;;;;;;;54.23;24.37;;;8.30;98.30;;;;;;5125610;23;20430;-79
2021/11/14 01:38:57;;;;;;;49.40;22.57;;;8.30;98.30;;;;;;5133835;23;20517;-79
2021/11/14 01:41:02;;;;;;;55.67;25.07;;;8.30;98.30;;;;;;5134520;23;20437;-79
2021/11/14 01:43:10;;;;;;;53.33;25.47;;;8.20;98.30;;;;;;5136402;23;20452;-79
2021/11/14 01:45:13;;;;;;;50.90;24.13;;;8.20;98.30;;;;;;5137364;23;20436;-80
2021/11/14 01:47:16;;;;;;;52.97;25.70;;;8.20;98.30;;;;;;5137164;23;20431;-79
2021/11/14 01:49:19;;;;;;;53.90;28.33;;;8.30;98.30;;;;;;5137636;23;20450;-79
2021/11/14 01:51:32;;;;;;;47.33;23.47;;;8.30;98.30;;;;;;5137834;23;20420;-80
2021/11/14 01:53:37;;;;;;;55.50;24.50;;;8.30;98.30;;;;;;5129941;23;20428;-79
2021/11/14 01:55:43;;;;;;;52.43;25.53;;;8.30;98.30;;;;;;5130161;23;20463;-79
2021/11/14 01:57:46;;;;;;;50.83;23.97;;;8.20;98.30;;;;;;5137151;23;20436;-79
2021/11/14 01:59:50;;;;;;;53.57;22.90;;;8.20;98.30;;;;;;5137368;23;20448;-79
2021/11/14 02:01:53;;;;;;;50.50;23.97;;;8.20;98.30;;;;;;5137465;23;20489;-79
2021/11/14 02:04:02;;;;;;;50.83;23.50;;;8.10;98.30;;;;;;5129314;23;20429;-79
2021/11/14 02:06:07;;;;;;;51.07;22.70;;;8.10;98.30;;;;;;5129042;23;20414;-79
2021/11/14 02:08:12;;;;;;;54.63;26.77;;;8.10;98.30;;;;;;5136604;23;20666;-79
2021/11/14 02:10:15;;;;;;;48.73;26.30;;;8.20;98.30;;;;;;5138386;23;20457;-80
2021/11/14 02:12:18;;;;;;;70.00;32.90;;;8.20;98.30;;;;;;5131820;23;20531;-80
2021/11/14 02:14:22;;;;;;;48.63;22.83;;;8.30;98.30;;;;;;5132210;23;20432;-79
2021/11/14 02:16:28;;;;;;;50.40;23.57;;;8.30;98.30;;;;;;5140136;23;20417;-80
2021/11/14 02:18:32;;;;;;;58.73;26.73;;;8.20;98.30;;;;;;5131232;23;20473;-79
2021/11/14 02:20:36;;;;;;;50.43;21.57;;;8.10;98.30;;;;;;5130092;23;20519;-80
2021/11/14 02:22:39;;;;;;;46.70;22.67;;;8.10;98.30;;;;;;5130181;23;20508;-79
2021/11/14 02:24:42;;;;;;;46.13;22.37;;;8.10;98.30;;;;;;5131064;23;20434;-79
2021/11/14 02:26:46;;;;;;;46.63;22.60;;;8.10;98.30;;;;;;5139226;23;20453;-79
2021/11/14 02:28:49;;;;;;;45.40;22.23;;;8.10;98.30;;;;;;5131228;23;20474;-79
2021/11/14 02:30:56;;;;;;;48.87;22.40;;;8.10;98.30;;;;;;5139942;23;20417;-80
2021/11/14 02:32:59;;;;;;;63.30;32.23;;;8.10;98.30;;;;;;5140497;23;20423;-79
2021/11/14 02:35:14;;;;;;;68.73;37.07;;;8.10;98.30;;;;;;5131990;23;20411;-80
2021/11/14 02:37:19;;;;;;;55.17;24.20;;;8.20;98.30;;;;;;5139697;23;20424;-80
2021/11/14 02:39:21;;;;;;;47.93;21.50;;;8.20;98.30;;;;;;5139505;23;20454;-79
2021/11/14 02:41:25;;;;;;;44.47;22.70;;;8.30;98.30;;;;;;5136976;23;20468;-79
2021/11/14 02:43:29;;;;;;;50.10;22.90;;;8.30;98.30;;;;;;5127334;23;20492;-79
2021/11/14 02:45:32;;;;;;;47.27;24.97;;;8.30;98.30;;;;;;5136423;23;20490;-79
2021/11/14 02:47:36;;;;;;;55.07;29.67;;;8.30;98.30;;;;;;5127604;23;20520;-80
2021/11/14 02:49:39;;;;;;;52.53;29.17;;;8.30;98.30;;;;;;5128415;23;20480;-79
2021/11/14 02:51:42;;;;;;;43.30;21.70;;;8.30;98.30;;;;;;5127601;23;20518;-79
2021/11/14 02:53:46;;;;;;;49.07;22.67;;;8.30;98.30;;;;;;5128493;23;20490;-79
2021/11/14 02:55:50;;;;;;;53.30;23.17;;;8.30;98.30;;;;;;5136869;23;21262;-79
2021/11/14 02:57:53;;;;;;;49.50;23.83;;;8.30;98.30;;;;;;5128028;23;20494;-79
2021/11/14 02:59:56;;;;;;;44.17;22.60;;;8.30;98.30;;;;;;5129608;23;20503;-79
2021/11/14 03:01:59;;;;;;;52.83;22.17;;;8.30;98.30;;;;;;5137225;23;20430;-79
2021/11/14 03:04:03;;;;;;;46.57;22.37;;;8.30;98.30;;;;;;5129420;23;20512;-79
2021/11/14 03:06:08;;;;;;;48.60;22.03;;;8.40;98.30;;;;;;5137838;23;20429;-79
2021/11/14 03:08:12;;;;;;;58.57;27.50;;;8.40;98.30;;;;;;5137842;23;20523;-80
2021/11/14 03:10:21;;;;;;;63.90;30.90;;;8.40;98.30;;;;;;5129308;23;20434;-80
2021/11/14 03:12:23;;;;;;;51.20;24.20;;;8.40;98.30;;;;;;5138483;23;20420;-80
2021/11/14 03:14:27;;;;;;;51.07;21.87;;;8.40;98.30;;;;;;5138436;23;20920;-80
2021/11/14 03:16:44;;;;;;;60.03;24.13;;;8.40;98.30;;;;;;5130716;23;20421;-79
2021/11/14 03:18:48;;;;;;;49.73;22.27;;;8.40;98.30;;;;;;5137953;23;20576;-80
2021/11/14 03:20:52;;;;;;;52.60;23.77;;;8.40;98.30;;;;;;5138613;23;20816;-80
2021/11/14 03:22:55;;;;;;;67.60;25.23;;;8.40;98.30;;;;;;5139714;23;20512;-79
2021/11/14 03:24:58;;;;;;;58.47;25.03;;;8.40;98.30;;;;;;5133565;23;20463;-79
2021/11/14 03:27:02;;;;;;;65.40;26.03;;;8.40;98.30;;;;;;5125754;23;20516;-79
2021/11/14 03:29:06;;;;;;;76.57;32.43;;;8.40;98.30;;;;;;5124915;23;20453;-79
2021/11/14 03:31:09;;;;;;;85.83;37.30;;;8.40;98.30;;;;;;5124752;23;20513;-80
2021/11/14 03:33:15;;;;;;;68.90;28.90;;;8.40;98.30;;;;;;5134358;23;20426;-79
2021/11/14 03:35:19;;;;;;;73.20;26.53;;;8.40;98.30;;;;;;5133545;23;20487;-79
2021/11/14 03:37:23;;;;;;;80.13;28.93;;;8.40;98.30;;;;;;5125326;23;20509;-79
2021/11/14 03:39:26;;;;;;;75.97;26.27;;;8.30;98.30;;;;;;5125232;23;20464;-79
2021/11/14 03:41:32;;;;;;;91.13;37.33;;;8.40;98.30;;;;;;5126846;23;20909;-80
2021/11/14 03:43:38;;;;;;;84.83;33.60;;;8.40;98.30;;;;;;5134785;23;20424;-79
2021/11/14 03:45:41;;;;;;;91.20;29.70;;;8.40;98.30;;;;;;5134542;23;20447;-79
2021/11/14 03:47:45;;;;;;;81.03;29.63;;;8.40;98.30;;;;;;5125328;23;20440;-79
2021/11/14 03:49:47;;;;;;;81.07;29.50;;;8.40;98.30;;;;;;5125964;23;20504;-79
2021/11/14 03:51:50;;;;;;;80.57;29.47;;;8.40;98.30;;;;;;5135038;23;20485;-79
2021/11/14 03:53:55;;;;;;;92.90;33.50;;;8.50;98.30;;;;;;5136187;23;20522;-79
2021/11/14 03:55:58;;;;;;;85.20;30.97;;;8.40;98.30;;;;;;5127137;23;20436;-79
2021/11/14 03:58:01;;;;;;;98.67;35.30;;;8.40;98.30;;;;;;5135305;23;20445;-80
2021/11/14 04:00:10;;;;;;;104.03;41.80;;;8.40;98.30;;;;;;5135390;23;20869;-80
2021/11/14 04:02:13;;;;;;;97.17;32.70;;;8.40;98.30;;;;;;5127281;23;20429;-80
2021/11/14 04:04:17;;;;;;;103.90;44.53;;;8.40;98.30;;;;;;5127576;23;20480;-79
2021/11/14 04:06:21;;;;;;;104.33;43.77;;;8.30;98.30;;;;;;5128054;23;20453;-79
2021/11/14 04:08:27;;;;;;;106.20;44.53;;;8.30;98.30;;;;;;5128244;23;20449;-79
2021/11/14 04:10:30;;;;;;;100.00;36.20;;;8.30;98.30;;;;;;5137513;23;20465;-80
2021/11/14 04:12:33;;;;;;;91.50;36.30;;;8.30;98.30;;;;;;5130668;23;20432;-80
2021/11/14 04:14:36;;;;;;;90.70;35.63;;;8.30;98.30;;;;;;5142940;23;20671;-80
2021/11/14 04:16:40;;;;;;;95.43;35.50;;;8.30;98.30;;;;;;5133967;23;20429;-80
2021/11/14 04:18:43;;;;;;;92.90;34.93;;;8.30;98.30;;;;;;5131917;23;20473;-81
2021/11/14 04:20:47;;;;;;;92.27;35.20;;;8.40;98.30;;;;;;5133884;23;20513;-80
2021/11/14 04:22:50;;;;;;;87.40;34.37;;;8.40;98.30;;;;;;5133716;23;20469;-80
2021/11/14 04:24:53;;;;;;;103.80;36.30;;;8.40;98.30;;;;;;5133145;23;20429;-80
2021/11/14 04:26:56;;;;;;;94.90;35.60;;;8.40;98.30;;;;;;5133881;23;20438;-80
2021/11/14 04:28:59;;;;;;;88.57;33.63;;;8.30;98.30;;;;;;5132660;23;20456;-79
2021/11/14 04:31:02;;;;;;;93.53;37.43;;;8.30;98.30;;;;;;5132526;23;20450;-80
2021/11/14 04:33:07;;;;;;;89.00;38.43;;;8.30;98.30;;;;;;5139748;23;20430;-80
2021/11/14 04:35:10;;;;;;;91.63;36.10;;;8.40;98.30;;;;;;5131605;23;20501;-80
2021/11/14 04:37:13;;;;;;;90.47;34.90;;;8.30;98.30;;;;;;5139781;23;20428;-80
2021/11/14 04:39:16;;;;;;;89.53;35.33;;;8.30;98.30;;;;;;5132256;23;20456;-80
2021/11/14 04:41:19;;;;;;;76.77;35.17;;;8.40;98.30;;;;;;5139835;23;20450;-81
2021/11/14 04:43:23;;;;;;;82.80;33.53;;;8.40;98.30;;;;;;5140702;23;20489;-80
2021/11/14 04:45:25;;;;;;;87.00;35.40;;;8.40;98.30;;;;;;5131628;23;20432;-80
2021/11/14 04:47:28;;;;;;;75.93;34.20;;;8.30;98.30;;;;;;5131052;23;20496;-80
2021/11/14 04:49:32;;;;;;;79.80;34.77;;;8.30;98.30;;;;;;5130569;23;20463;-79
2021/11/14 04:51:35;;;;;;;86.40;34.53;;;8.30;98.30;;;;;;5130493;23;20431;-79
2021/11/14 04:53:38;;;;;;;93.57;37.43;;;8.30;98.30;;;;;;5139066;23;20442;-79
2021/11/14 04:55:41;;;;;;;91.00;37.83;;;8.40;98.30;;;;;;5129953;23;20826;-79
2021/11/14 04:57:50;;;;;;;88.73;35.63;;;8.40;98.30;;;;;;5137867;23;20425;-79
2021/11/14 04:59:53;;;;;;;78.10;34.10;;;8.30;98.30;;;;;;5129562;23;20483;-79
2021/11/14 05:01:56;;;;;;;81.03;34.10;;;8.30;98.30;;;;;;5137766;23;20448;-80
2021/11/14 05:03:59;;;;;;;73.47;31.80;;;8.30;98.30;;;;;;5128470;23;20438;-79
2021/11/14 05:06:08;;;;;;;78.10;31.60;;;8.30;98.30;;;;;;5130428;23;20538;-80
2021/11/14 05:08:11;;;;;;;79.27;33.30;;;8.20;98.30;;;;;;5137506;23;20508;-79
2021/11/14 05:10:15;;;;;;;73.90;34.70;;;8.30;98.30;;;;;;5130234;23;20426;-79
2021/11/14 05:12:18;;;;;;;76.87;32.27;;;8.30;98.30;;;;;;5137391;23;20421;-80
2021/11/14 05:14:20;;;;;;;81.60;33.73;;;8.30;98.30;;;;;;5138268;23;20427;-79
2021/11/14 05:16:23;;;;;;;72.53;33.43;;;8.30;98.30;;;;;;5129902;23;20432;-79
2021/11/14 05:18:26;;;;;;;73.17;31.40;;;8.30;98.30;;;;;;5129113;23;20463;-79
2021/11/14 05:20:29;;;;;;;69.00;30.80;;;8.30;98.30;;;;;;5139012;23;20428;-79
2021/11/14 05:22:34;;;;;;;73.73;32.17;;;8.30;98.30;;;;;;5138582;23;20504;-79
2021/11/14 05:24:38;;;;;;;76.37;31.90;;;8.30;98.30;;;;;;5137708;23;20838;-79
2021/11/14 05:26:41;;;;;;;70.03;29.47;;;8.30;98.30;;;;;;5129828;23;20501;-80
2021/11/14 05:28:45;;;;;;;70.53;31.40;;;8.30;98.30;;;;;;5138257;23;20438;-80
2021/11/14 05:30:48;;;;;;;73.53;39.73;;;8.30;98.30;;;;;;5129852;23;20427;-79
2021/11/14 05:32:51;;;;;;;70.27;32.00;;;8.30;98.30;;;;;;5130634;23;20441;-80
2021/11/14 05:34:54;;;;;;;76.17;33.07;;;8.30;98.30;;;;;;5129785;23;20750;-80
2021/11/14 05:36:57;;;;;;;76.63;32.30;;;8.30;98.30;;;;;;5129693;23;20427;-80
2021/11/14 05:39:02;;;;;;;74.80;30.37;;;8.20;98.30;;;;;;5129585;23;20447;-80
2021/11/14 05:41:05;;;;;;;76.50;33.50;;;8.20;98.30;;;;;;5129787;23;20501;-80
2021/11/14 05:43:08;;;;;;;68.43;30.93;;;8.20;98.30;;;;;;5129790;23;20428;-80
2021/11/14 05:45:11;;;;;;;69.00;31.23;;;8.20;98.30;;;;;;5129409;23;20487;-79
2021/11/14 05:47:14;;;;;;;73.30;33.87;;;8.20;98.30;;;;;;5130140;23;20968;-79
2021/11/14 05:49:17;;;;;;;73.17;32.37;;;8.30;98.30;;;;;;5138118;23;20460;-80
2021/11/14 05:51:20;;;;;;;66.00;32.03;;;8.20;98.30;;;;;;5138471;23;20474;-79
2021/11/14 05:53:23;;;;;;;69.83;31.50;;;8.20;98.30;;;;;;5137986;23;20496;-79
2021/11/14 05:55:27;;;;;;;62.23;28.57;;;8.20;98.30;;;;;;5138150;23;20811;-80
2021/11/14 05:57:37;;;;;;;67.13;31.27;;;8.20;98.30;;;;;;5136426;23;20432;-80
2021/11/14 05:59:48;;;;;;;73.93;30.93;;;8.20;98.30;;;;;;5129127;23;20486;-79
2021/11/14 06:01:55;;;;;;;73.50;31.13;;;8.20;98.30;;;;;;5128369;23;21079;-79
2021/11/14 06:04:03;;;;;;;66.13;29.17;;;8.20;98.30;;;;;;5136428;23;20406;-79
2021/11/14 06:06:07;;;;;;;67.63;31.27;;;8.20;98.30;;;;;;5128878;23;20498;-79
2021/11/14 06:08:10;;;;;;;69.67;32.50;;;8.20;98.30;;;;;;5128038;23;20529;-80
2021/11/14 06:10:14;;;;;;;66.40;32.60;;;8.20;98.30;;;;;;5128757;23;20457;-80
2021/11/14 06:12:21;;;;;;;63.60;31.47;;;8.20;98.30;;;;;;5128215;23;20424;-79
2021/11/14 06:14:24;;;;;;;76.53;35.73;;;8.20;98.30;;;;;;5136257;23;20435;-79
2021/11/14 06:16:27;;;;;;;98.40;47.63;;;8.40;98.30;;;;;;5129749;23;20513;-81
2021/11/14 06:18:30;;;;;;;79.97;36.63;;;8.40;98.30;;;;;;5129976;23;20784;-80
2021/11/14 06:20:33;;;;;;;61.73;28.60;;;8.50;98.30;;;;;;5138499;23;20480;-80
2021/11/14 06:22:36;;;;;;;63.00;31.90;;;8.40;98.30;;;;;;5137182;23;20448;-80
2021/11/14 06:24:39;;;;;;;61.60;29.77;;;8.40;98.30;;;;;;5138219;23;21058;-80
2021/11/14 06:26:43;;;;;;;58.83;29.63;;;8.30;98.30;;;;;;5139887;23;20428;-80
2021/11/14 06:28:48;;;;;;;58.93;30.60;;;8.30;98.30;;;;;;5130016;23;20450;-79
2021/11/14 06:30:51;;;;;;;60.67;28.10;;;8.20;98.30;;;;;;5132346;23;20431;-80
2021/11/14 06:32:54;;;;;;;57.13;29.50;;;8.20;98.30;;;;;;5131743;23;20430;-80
2021/11/14 06:34:59;;;;;;;64.20;32.43;;;8.20;98.30;;;;;;5132185;23;20488;-80
2021/11/14 06:37:02;;;;;;;63.60;29.73;;;8.20;98.30;;;;;;5133900;23;20450;-79
2021/11/14 06:39:05;;;;;;;63.73;30.47;;;8.20;98.30;;;;;;5138278;23;20461;-80
2021/11/14 06:41:08;;;;;;;68.20;31.40;;;8.20;98.30;;;;;;5129455;23;20493;-80
2021/11/14 06:43:11;;;;;;;64.20;30.93;;;8.20;98.30;;;;;;5130449;23;20432;-80
2021/11/14 06:45:16;;;;;;;67.10;32.13;;;8.20;98.30;;;;;;5129838;23;20804;-80
2021/11/14 06:47:19;;;;;;;68.57;34.60;;;8.20;98.30;;;;;;5129577;23;20435;-80
2021/11/14 06:49:22;;;;;;;63.03;30.90;;;8.20;98.30;;;;;;5130060;23;20457;-79
2021/11/14 06:51:25;;;;;;;59.20;27.87;;;8.20;98.30;;;;;;5138281;23;20419;-79
2021/11/14 06:53:28;;;;;;;61.37;30.03;;;8.30;98.30;;;;;;5138382;23;20794;-79
2021/11/14 06:55:31;;;;;;;58.13;28.60;;;8.30;98.30;;;;;;5130327;23;20467;-79
2021/11/14 06:57:34;;;;;;;64.90;32.57;;;8.30;98.30;;;;;;5129353;23;20433;-79
2021/11/14 06:59:38;;;;;;;62.13;30.47;;;8.40;98.30;;;;;;5129055;23;20454;-79
2021/11/14 07:01:43;;;;;;;63.53;30.17;;;8.40;98.30;;;;;;5137211;23;20455;-79
2021/11/14 07:03:46;;;;;;;60.90;31.27;;;8.40;98.30;;;;;;5130579;23;20429;-80
2021/11/14 07:05:49;;;;;;;59.73;28.67;;;8.40;98.30;;;;;;5130704;23;20456;-80
2021/11/14 07:07:52;;;;;;;58.97;32.27;;;8.40;98.30;;;;;;5138715;23;20462;-80
2021/11/14 07:09:55;;;;;;;69.83;33.87;;;8.40;98.30;;;;;;5129309;23;20436;-80
2021/11/14 07:11:58;;;;;;;63.43;29.97;;;8.40;98.30;;;;;;5137401;23;20978;-80
2021/11/14 07:14:00;;;;;;;57.33;28.80;;;8.40;98.30;;;;;;5130015;23;20492;-80
2021/11/14 07:16:04;;;;;;;64.03;31.83;;;8.40;98.30;;;;;;5130116;23;20489;-80
2021/11/14 07:18:14;;;;;;;65.90;32.87;;;8.40;98.30;;;;;;5129003;23;20461;-80
2021/11/14 07:20:18;;;;;;;66.60;34.73;;;8.40;98.30;;;;;;5138072;23;20417;-79
2021/11/14 07:22:21;;;;;;;62.80;31.80;;;8.40;98.30;;;;;;5130862;23;20510;-80
2021/11/14 07:24:24;;;;;;;63.67;31.17;;;8.40;98.30;;;;;;5130205;23;20477;-81
2021/11/14 07:26:30;;;;;;;60.17;29.03;;;8.40;98.30;;;;;;5131224;23;20435;-80
2021/11/14 07:28:33;;;;;;;74.67;32.77;;;8.40;98.30;;;;;;5131217;23;21012;-81
2021/11/14 07:30:36;;;;;;;58.77;31.70;;;8.40;98.30;;;;;;5139118;23;20496;-80
2021/11/14 07:32:40;;;;;;;58.97;30.50;;;8.40;98.30;;;;;;5131119;23;20457;-80
2021/11/14 07:34:44;;;;;;;69.47;31.70;;;8.40;98.30;;;;;;5130076;23;20459;-79
2021/11/14 07:36:47;;;;;;;69.30;31.27;;;8.40;98.30;;;;;;5130395;23;20464;-79
2021/11/14 07:38:50;;;;;;;66.97;38.70;;;8.40;98.30;;;;;;5128779;23;20460;-79
2021/11/14 07:40:54;;;;;;;65.43;32.97;;;8.40;98.30;;;;;;5137355;23;20425;-79
2021/11/14 07:42:57;;;;;;;69.90;31.63;;;8.50;98.30;;;;;;5137924;23;20472;-80
2021/11/14 07:45:00;;;;;;;62.10;30.40;;;8.60;98.30;;;;;;5130038;23;20452;-79
2021/11/14 07:47:04;;;;;;;58.20;30.00;;;8.50;98.30;;;;;;5129803;23;20506;-79
2021/11/14 07:49:07;;;;;;;77.90;40.53;;;8.50;98.30;;;;;;5129848;23;20517;-79
2021/11/14 07:51:11;;;;;;;68.87;34.20;;;8.40;98.30;;;;;;5130216;23;20456;-80
2021/11/14 07:53:17;;;;;;;77.73;34.23;;;8.50;98.30;;;;;;5129309;23;20457;-80
2021/11/14 07:55:20;;;;;;;63.33;30.77;;;8.60;98.30;;;;;;5137053;23;20439;-79
2021/11/14 07:57:23;;;;;;;77.57;38.33;;;8.50;98.30;;;;;;5129297;23;20433;-80
2021/11/14 07:59:26;;;;;;;87.43;39.00;;;8.60;98.30;;;;;;5129447;23;20521;-80
2021/11/14 08:01:29;;;;;;;90.07;44.03;;;8.80;98.30;;;;;;5129248;23;20426;-80
2021/11/14 08:03:32;;;;;;;82.40;40.70;;;8.80;98.30;;;;;;5128215;23;20776;-81
2021/11/14 08:05:35;;;;;;;59.70;30.30;;;8.80;98.30;;;;;;5137813;23;20880;-80
2021/11/14 08:07:40;;;;;;;63.33;31.43;;;8.80;98.30;;;;;;5137399;23;20429;-80
2021/11/14 08:09:43;;;;;;;63.23;30.77;;;8.70;98.30;;;;;;5137156;23;20488;-80
2021/11/14 08:11:46;;;;;;;65.33;35.53;;;8.70;98.30;;;;;;5127321;23;20425;-79
2021/11/14 08:13:49;;;;;;;69.63;32.80;;;8.70;98.30;;;;;;5137079;23;20418;-80
2021/11/14 08:15:52;;;;;;;62.73;32.20;;;8.70;98.30;;;;;;5136755;23;20422;-80
2021/11/14 08:17:55;;;;;;;66.83;31.27;;;8.60;98.30;;;;;;5137781;23;20435;-79
2021/11/14 08:20:00;;;;;;;66.13;31.00;;;8.50;98.30;;;;;;5137593;23;20460;-79
2021/11/14 08:22:04;;;;;;;65.00;30.90;;;8.60;98.30;;;;;;5129261;23;20956;-79
2021/11/14 08:24:09;;;;;;;68.93;35.77;;;8.60;98.30;;;;;;5128306;23;20536;-79
2021/11/14 08:26:12;;;;;;;88.87;37.17;;;8.70;98.30;;;;;;5129194;23;20429;-79
2021/11/14 08:28:15;;;;;;;77.20;35.27;;;8.80;98.30;;;;;;5129489;23;20480;-79
2021/11/14 08:30:19;;;;;;;70.47;32.30;;;8.90;98.30;;;;;;5137671;23;20489;-80
2021/11/14 08:32:22;;;;;;;73.53;34.07;;;8.80;98.30;;;;;;5129233;23;20530;-80
2021/11/14 08:34:25;;;;;;;62.03;30.50;;;8.80;98.30;;;;;;5129086;23;20422;-79
2021/11/14 08:36:28;;;;;;;71.73;32.70;;;8.80;98.30;;;;;;5137615;23;20490;-79
2021/11/14 08:38:31;;;;;;;72.97;31.23;;;8.80;98.30;;;;;;5135043;23;20512;-79
2021/11/14 08:40:37;;;;;;;65.93;28.57;;;8.70;98.30;;;;;;5129360;23;20455;-79
2021/11/14 08:42:41;;;;;;;56.10;29.17;;;8.70;98.30;;;;;;5129182;23;20425;-80
2021/11/14 08:44:45;;;;;;;69.03;35.53;;;8.70;98.30;;;;;;5129696;23;20459;-80
2021/11/14 08:46:48;;;;;;;61.77;27.40;;;8.50;98.30;;;;;;5129405;23;20423;-80
2021/11/14 08:48:53;;;;;;;64.13;30.03;;;8.50;98.30;;;;;;5128759;23;20511;-80
2021/11/14 08:50:59;;;;;;;66.30;29.27;;;8.60;98.30;;;;;;5120278;23;20496;-80
2021/11/14 08:53:02;;;;;;;70.67;30.47;;;8.50;98.30;;;;;;5120422;23;20423;-79
2021/11/14 08:55:06;;;;;;;72.70;34.43;;;8.50;98.30;;;;;;5130276;23;20434;-80
2021/11/14 08:57:11;;;;;;;70.73;31.27;;;8.40;98.30;;;;;;5128811;23;20431;-79
2021/11/14 08:59:14;;;;;;;73.67;34.97;;;8.40;98.30;;;;;;5129448;23;20826;-79
2021/11/14 09:01:17;;;;;;;74.03;34.00;;;8.50;98.30;;;;;;5128944;23;20516;-79
2021/11/14 09:03:20;;;;;;;69.80;30.73;;;8.60;98.30;;;;;;5128934;23;20451;-79
2021/11/14 09:05:24;;;;;;;82.17;33.00;;;8.60;98.30;;;;;;5129247;23;20423;-80
2021/11/14 09:07:27;;;;;;;79.70;32.17;;;8.50;98.30;;;;;;5119761;23;21145;-79
2021/11/14 09:09:30;;;;;;;82.07;35.67;;;8.70;98.30;;;;;;5129009;23;20525;-79
2021/11/14 09:11:33;;;;;;;74.37;33.07;;;8.70;98.30;;;;;;5120541;23;20496;-79
2021/11/14 09:13:38;;;;;;;68.10;31.73;;;8.80;98.30;;;;;;5121011;23;20515;-79
2021/11/14 09:15:41;;;;;;;71.93;33.03;;;8.70;98.30;;;;;;5120416;23;20437;-79
2021/11/14 09:17:48;;;;;;;73.20;33.47;;;8.70;98.30;;;;;;5128249;23;20435;-80
2021/11/14 09:19:52;;;;;;;69.17;38.03;;;8.70;98.30;;;;;;5120208;23;20999;-79
2021/11/14 09:21:54;;;;;;;74.23;34.37;;;8.70;98.30;;;;;;5128218;23;20449;-79
2021/11/14 09:23:57;;;;;;;62.97;30.67;;;8.80;98.30;;;;;;5119769;23;20522;-80
2021/11/14 09:26:01;;;;;;;70.50;30.90;;;8.80;98.30;;;;;;5120034;23;20436;-80
2021/11/14 09:28:04;;;;;;;69.70;33.40;;;8.90;98.30;;;;;;5119953;23;20536;-80
2021/11/14 09:30:10;;;;;;;69.33;30.60;;;9.00;98.30;;;;;;5119883;23;20425;-80
2021/11/14 09:32:14;;;;;;;78.50;32.90;;;9.00;98.30;;;;;;5121006;23;20427;-79
2021/11/14 09:34:17;;;;;;;73.90;33.10;;;8.90;98.30;;;;;;5128655;23;20418;-80
2021/11/14 09:36:20;;;;;;;69.70;31.60;;;8.90;98.30;;;;;;5120242;23;20463;-80
2021/11/14 09:38:23;;;;;;;67.03;30.87;;;8.80;98.30;;;;;;5120690;23;20456;-80
2021/11/14 09:40:26;;;;;;;70.37;31.13;;;8.90;98.30;;;;;;5129532;23;20422;-79
2021/11/14 09:42:30;;;;;;;79.90;33.60;;;8.80;98.30;;;;;;5128457;23;20512;-80
2021/11/14 09:44:33;;;;;;;71.57;31.77;;;8.90;98.30;;;;;;5129049;23;20527;-80
2021/11/14 09:46:38;;;;;;;70.97;30.90;;;8.90;98.30;;;;;;5129273;23;20497;-80
2021/11/14 09:48:41;;;;;;;68.80;33.00;;;8.90;98.30;;;;;;5129931;23;20449;-79
2021/11/14 09:50:44;;;;;;;71.73;34.77;;;8.90;98.30;;;;;;5130988;23;20424;-81
2021/11/14 09:52:47;;;;;;;68.70;33.87;;;9.00;98.30;;;;;;5121640;23;20426;-80
2021/11/14 09:54:50;;;;;;;70.30;32.80;;;9.10;98.30;;;;;;5121618;23;20450;-81
2021/11/14 09:56:55;;;;;;;76.80;32.00;;;9.10;98.30;;;;;;5129735;23;20426;-80
2021/11/14 09:58:58;;;;;;;68.30;32.77;;;9.10;98.30;;;;;;5129689;23;20441;-80
2021/11/14 10:01:02;;;;;;;65.50;31.40;;;9.00;98.30;;;;;;5121404;23;20512;-81
2021/11/14 10:03:07;;;;;;;64.30;31.90;;;8.90;98.30;;;;;;5123527;23;20433;-80
2021/11/14 10:05:12;;;;;;;58.80;30.87;;;9.00;98.30;;;;;;5123391;23;20453;-81
2021/11/14 10:07:17;;;;;;;63.83;30.80;;;9.00;98.30;;;;;;5123436;23;20917;-81
2021/11/14 10:09:29;;;;;;;62.90;32.00;;;9.00;98.30;;;;;;5132212;23;20442;-80
2021/11/14 10:11:36;;;;;;;61.47;26.87;;;9.10;98.30;;;;;;5123342;23;20436;-81
2021/11/14 10:13:40;;;;;;;60.63;28.47;;;9.10;98.30;;;;;;5132307;23;20434;-81
2021/11/14 10:15:44;;;;;;;52.97;27.00;;;9.10;98.30;;;;;;5123610;23;20513;-81
2021/11/14 10:17:51;;;;;;;59.40;34.10;;;9.00;98.30;;;;;;5122910;23;20435;-81
2021/11/14 10:20:10;;;;;;;50.33;26.23;;;9.00;98.30;;;;;;5131611;23;20441;-81
2021/11/14 10:22:13;;;;;;;52.23;27.13;;;9.00;98.30;;;;;;5122930;23;20473;-81
2021/11/14 10:24:17;;;;;;;54.80;26.90;;;9.00;98.30;;;;;;5123668;23;20450;-80
2021/11/14 10:26:20;;;;;;;53.83;27.10;;;9.00;98.30;;;;;;5123652;23;20436;-80
2021/11/14 10:28:27;;;;;;;58.77;26.47;;;8.90;98.30;;;;;;5130954;23;20532;-80
2021/11/14 10:30:34;;;;;;;50.00;26.67;;;8.80;98.30;;;;;;5124127;23;20503;-81
2021/11/14 10:32:38;;;;;;;53.93;25.10;;;8.80;98.30;;;;;;5123659;23;20431;-81
2021/11/14 10:34:47;;;;;;;58.83;32.57;;;8.90;98.30;;;;;;5123812;23;20455;-81
2021/11/14 10:36:57;;;;;;;49.43;26.83;;;8.90;98.30;;;;;;5124684;23;20429;-81